ADDS METAR Data INFO
IDs: Format: Raw Decoded Include TAF

Data at: 1843 UTC 16 Dec 2017

KRGA 161840Z AUTO 24013G20KT 10SM CLR 09/M01 A3014 RMK AO2
KRGA 161815Z AUTO 25015G22KT 10SM CLR 09/M01 A3015 RMK AO2
KRGA 161755Z AUTO 23015G20KT 10SM CLR 08/M01 A3015 RMK AO2
KRGA 161735Z AUTO 23016G22KT 10SM CLR 07/M02 A3016 RMK AO2
KRGA 161715Z AUTO 23013G20KT 10SM CLR 07/M02 A3017 RMK AO2
KRGA 161655Z AUTO 23011KT 10SM CLR 06/M02 A3017 RMK AO2
KRGA 161635Z AUTO 23011G17KT 10SM CLR 05/M02 A3018 RMK AO2
KRGA 161615Z AUTO 22010G17KT 10SM CLR 05/M02 A3018 RMK AO2
KRGA 161555Z AUTO 22012G17KT 10SM CLR 04/M03 A3018 RMK AO2
KRGA 161535Z AUTO 22007G18KT 10SM CLR 04/M03 A3018 RMK AO2
KRGA 161515Z AUTO 22013G17KT 10SM CLR 03/M03 A3018 RMK AO2
KRGA 161455Z AUTO 21012G19KT 10SM CLR 03/M03 A3017 RMK AO2
KRGA 161435Z AUTO 20009G15KT 10SM CLR 02/M04 A3017 RMK AO2
KRGA 161415Z AUTO 21010KT 10SM CLR 01/M04 A3017 RMK AO2
KRGA 161355Z AUTO 20010KT 10SM CLR 01/M04 A3017 RMK AO2
KRGA 161335Z AUTO 21009KT 10SM CLR 00/M04 A3016 RMK AO2
KRGA 161315Z AUTO 21008KT 10SM CLR M00/M05 A3017 RMK AO2
KRGA 161255Z AUTO 21006KT 10SM CLR M01/M05 A3017 RMK AO2
KRGA 161235Z AUTO 21006KT 10SM CLR M01/M05 A3017 RMK AO2
KRGA 161215Z AUTO 21006KT 10SM CLR M00/M05 A3016 RMK AO2
KRGA 161155Z AUTO 21008KT 10SM CLR M00/M05 A3015 RMK AO2
KRGA 161135Z AUTO 21010KT 10SM CLR 00/M05 A3014 RMK AO2
KRGA 161115Z AUTO 20008G14KT 10SM CLR 00/M05 A3015 RMK AO2
KRGA 161055Z AUTO 21008KT 10SM CLR 00/M05 A3015 RMK AO2
KRGA 161035Z AUTO 21010KT 10SM SCT040 00/M05 A3015 RMK AO2
KRGA 161015Z AUTO 21009KT 10SM OVC040 00/M05 A3014 RMK AO2
KRGA 160955Z AUTO 21010KT 10SM OVC042 00/M05 A3014 RMK AO2
KRGA 160935Z AUTO 20009KT 10SM OVC044 00/M05 A3014 RMK AO2
KRGA 160915Z AUTO 20008KT 10SM OVC044 01/M05 A3015 RMK AO2
KRGA 160855Z AUTO 21009KT 10SM OVC044 01/M05 A3016 RMK AO2
KRGA 160835Z AUTO 20007KT 10SM OVC046 01/M05 A3016 RMK AO2
KRGA 160815Z AUTO 20008KT 10SM OVC050 00/M05 A3016 RMK AO2
KRGA 160755Z AUTO 21006KT 10SM OVC050 00/M05 A3016 RMK AO2
KRGA 160735Z AUTO 20006KT 10SM OVC050 00/M05 A3015 RMK AO2
KRGA 160715Z AUTO 20005KT 10SM OVC050 00/M05 A3015 RMK AO2
KRGA 160655Z AUTO 20005KT 10SM OVC050 00/M05 A3016 RMK AO2
KRGA 160635Z AUTO 00000KT 10SM OVC060 00/M05 A3016 RMK AO2
KRGA 160615Z AUTO 00000KT 10SM OVC060 M00/M05 A3016 RMK AO2
KRGA 160555Z AUTO 00000KT 10SM OVC060 M01/M05 A3016 RMK AO2
KRGA 160535Z AUTO 00000KT 10SM BKN060 M01/M06 A3016 RMK AO2
KRGA 160515Z AUTO 20003KT 10SM SCT060 M01/M06 A3016 RMK AO2
KRGA 160455Z AUTO 00000KT 10SM CLR M01/M06 A3016 RMK AO2
KRGA 160435Z AUTO 21005KT 10SM SCT045 M01/M06 A3016 RMK AO2
KRGA 160415Z AUTO 21005KT 10SM BKN045 00/M06 A3015 RMK AO2
KRGA 160355Z AUTO 22007KT 10SM OVC045 00/M05 A3015 RMK AO2
KRGA 160335Z AUTO 22008KT 10SM OVC045 00/M05 A3014 RMK AO2
KRGA 160315Z AUTO 22008KT 10SM OVC047 00/M05 A3014 RMK AO2
KRGA 160255Z AUTO 22010KT 10SM OVC049 01/M06 A3013 RMK AO2
KRGA 160235Z AUTO 23007KT 10SM OVC049 01/M06 A3013 RMK AO2
KRGA 160215Z AUTO 22008KT 10SM OVC047 01/M06 A3013 RMK AO2
KRGA 160155Z AUTO 22007KT 10SM OVC045 01/M06 A3013 RMK AO2
KRGA 160135Z AUTO 22008KT 10SM OVC043 01/M06 A3013 RMK AO2
KRGA 160115Z AUTO 23009KT 10SM OVC043 01/M06 A3013 RMK AO2
KRGA 160055Z AUTO 22008KT 10SM OVC043 01/M06 A3012 RMK AO2
KRGA 160035Z AUTO 22007KT 10SM OVC043 00/M06 A3012 RMK AO2
KRGA 160015Z AUTO 22007KT 10SM OVC043 00/M06 A3012 RMK AO2
KRGA 152355Z AUTO 22008KT 10SM OVC043 00/M06 A3011 RMK AO2
KRGA 152335Z AUTO 23007KT 10SM OVC045 00/M06 A3010 RMK AO2
KRGA 152315Z AUTO 23007KT 10SM OVC045 00/M06 A3010 RMK AO2
KRGA 152255Z AUTO 22008KT 10SM OVC045 00/M06 A3008 RMK AO2
KRGA 152235Z AUTO 22006KT 10SM OVC047 00/M06 A3008 RMK AO2
KRGA 152215Z AUTO 23007KT 10SM OVC049 00/M06 A3008 RMK AO2
KRGA 152155Z AUTO 23007KT 10SM OVC049 01/M06 A3008 RMK AO2
KRGA 152135Z AUTO 22009KT 10SM OVC047 01/M06 A3007 RMK AO2
KRGA 152115Z AUTO 22009KT 10SM SCT038 OVC045 01/M06 A3007 RMK AO2
KRGA 152055Z AUTO 23008KT 10SM OVC040 01/M06 A3006 RMK AO2
KRGA 152035Z AUTO 24008KT 10SM BKN040 BKN049 01/M06 A3006 RMK AO2
KRGA 152015Z AUTO 23008KT 10SM CLR 01/M06 A3005 RMK AO2
KRGA 151955Z AUTO 22010KT 10SM SCT044 00/M06 A3005 RMK AO2
KRGA 151935Z AUTO 24010KT 10SM SCT030 SCT035 SCT044 00/M06 A3006 RMK AO2
KRGA 151915Z AUTO 26010KT 10SM BKN029 01/M06 A3006 RMK AO2
KRGA 151855Z AUTO 28009G15KT 10SM OVC029 M00/M06 A3007 RMK AO2
KRGA 151835Z AUTO 28011G20KT 10SM OVC029 M00/M06 A3007 RMK AO2
KRGA 151815Z AUTO 27009G15KT 10SM OVC029 M00/M06 A3007 RMK AO2
KRGA 151755Z AUTO 26009KT 10SM OVC029 M01/M07 A3008 RMK AO2
KRGA 151735Z AUTO 26010G16KT 10SM OVC029 M01/M07 A3008 RMK AO2
KRGA 151715Z AUTO 29009KT 10SM OVC029 M01/M07 A3008 RMK AO2
KRGA 151655Z AUTO 28012KT 10SM OVC031 M01/M07 A3009 RMK AO2
KRGA 151635Z AUTO 26009G15KT 10SM OVC029 M01/M07 A3009 RMK AO2
KRGA 151615Z AUTO 28007KT 10SM OVC031 M01/M07 A3009 RMK AO2
KRGA 151555Z AUTO 28013G17KT 10SM SCT027 OVC033 M01/M06 A3008 RMK AO2
KRGA 151535Z AUTO 27008KT 10SM OVC033 M01/M07 A3009 RMK AO2
KRGA 151515Z AUTO 27005KT 10SM OVC031 M02/M06 A3009 RMK AO2
KRGA 151455Z AUTO 27007KT 10SM OVC031 M02/M06 A3008 RMK AO2
KRGA 151435Z AUTO 00000KT 10SM OVC031 M02/M06 A3007 RMK AO2
KRGA 151415Z AUTO 00000KT 10SM OVC031 M03/M06 A3006 RMK AO2
KRGA 151355Z AUTO 00000KT 10SM OVC031 M03/M06 A3005 RMK AO2
KRGA 151335Z AUTO 00000KT 10SM OVC031 M03/M06 A3004 RMK AO2
KRGA 151315Z AUTO 00000KT 10SM OVC031 M03/M06 A3005 RMK AO2
KRGA 151255Z AUTO 00000KT 10SM OVC033 M03/M06 A3003 RMK AO2
KRGA 151235Z AUTO 00000KT 10SM OVC033 M03/M06 A3003 RMK AO2
KRGA 151215Z AUTO 00000KT 10SM OVC033 M04/M06 A3003 RMK AO2
KRGA 151155Z AUTO 00000KT 10SM OVC033 M04/M07 A3003 RMK AO2
KRGA 151135Z AUTO 00000KT 10SM OVC033 M04/M07 A3002 RMK AO2
KRGA 151115Z AUTO 00000KT 10SM OVC035 M04/M07 A3003 RMK AO2
KRGA 151055Z AUTO 00000KT 10SM OVC035 M04/M07 A3002 RMK AO2
KRGA 151035Z AUTO 00000KT 10SM OVC035 M04/M07 A3002 RMK AO2
KRGA 151015Z AUTO 00000KT 10SM OVC035 M04/M07 A3002 RMK AO2
KRGA 150955Z AUTO 00000KT 10SM OVC035 M04/M07 A3002 RMK AO2
KRGA 150935Z AUTO 00000KT 10SM OVC035 M04/M07 A3002 RMK AO2
KRGA 150915Z AUTO 00000KT 10SM OVC035 M04/M07 A3003 RMK AO2
KRGA 150855Z AUTO 00000KT 10SM OVC035 M04/M07 A3003 RMK AO2
KRGA 150835Z AUTO 00000KT 10SM OVC035 M04/M07 A3002 RMK AO2
KRGA 150815Z AUTO 00000KT 10SM OVC035 M04/M07 A3002 RMK AO2
KRGA 150755Z AUTO 00000KT 10SM OVC035 M04/M07 A3003 RMK AO2
KRGA 150735Z AUTO 00000KT 10SM OVC035 M04/M07 A3003 RMK AO2
KRGA 150715Z AUTO 00000KT 10SM OVC035 M04/M07 A3003 RMK AO2
KRGA 150655Z AUTO 00000KT 10SM OVC035 M04/M07 A3003 RMK AO2